sensor_id;sensor_type;location;lat;lon;timestamp;temperature;humidity
23207;DHT22;11773;52.570;13.052;2022-08-27T00:00:51;21.90;99.90
23207;DHT22;11773;52.570;13.052;2022-08-27T00:03:20;21.80;99.90
23207;DHT22;11773;52.570;13.052;2022-08-27T00:05:50;21.80;99.90
23207;DHT22;11773;52.570;13.052;2022-08-27T00:08:19;21.90;99.90
23207;DHT22;11773;52.570;13.052;2022-08-27T00:10:49;21.80;99.90
23207;DHT22;11773;52.570;13.052;2022-08-27T00:13:19;21.60;99.90
23207;DHT22;11773;52.570;13.052;2022-08-27T00:15:48;21.60;99.90
23207;DHT22;11773;52.570;13.052;2022-08-27T00:18:18;21.60;99.90
23207;DHT22;11773;52.570;13.052;2022-08-27T00:20:49;21.60;99.90
23207;DHT22;11773;52.570;13.052;2022-08-27T00:23:19;21.60;99.90
23207;DHT22;11773;52.570;13.052;2022-08-27T00:25:50;21.70;99.90
23207;DHT22;11773;52.570;13.052;2022-08-27T00:28:20;21.60;99.90
23207;DHT22;11773;52.570;13.052;2022-08-27T00:30:50;21.60;99.90
23207;DHT22;11773;52.570;13.052;2022-08-27T00:33:19;21.70;99.90
23207;DHT22;11773;52.570;13.052;2022-08-27T00:35:50;21.80;99.90
23207;DHT22;11773;52.570;13.052;2022-08-27T00:38:21;21.70;99.90
23207;DHT22;11773;52.570;13.052;2022-08-27T00:40:51;21.80;99.90
23207;DHT22;11773;52.570;13.052;2022-08-27T00:43:24;21.80;99.90
23207;DHT22;11773;52.570;13.052;2022-08-27T00:46:02;21.80;99.90
23207;DHT22;11773;52.570;13.052;2022-08-27T00:48:34;21.90;99.90
23207;DHT22;11773;52.570;13.052;2022-08-27T00:51:05;21.80;99.90
23207;DHT22;11773;52.570;13.052;2022-08-27T00:53:35;21.80;99.90
23207;DHT22;11773;52.570;13.052;2022-08-27T00:56:12;21.70;99.90
23207;DHT22;11773;52.570;13.052;2022-08-27T00:58:49;21.70;99.90
23207;DHT22;11773;52.570;13.052;2022-08-27T01:01:23;21.60;99.90
23207;DHT22;11773;52.570;13.052;2022-08-27T01:03:57;21.70;99.90
23207;DHT22;11773;52.570;13.052;2022-08-27T01:06:33;21.70;99.90
23207;DHT22;11773;52.570;13.052;2022-08-27T01:09:07;21.70;99.90
23207;DHT22;11773;52.570;13.052;2022-08-27T01:11:37;21.70;99.90
23207;DHT22;11773;52.570;13.052;2022-08-27T01:14:07;21.60;99.90
23207;DHT22;11773;52.570;13.052;2022-08-27T01:16:40;21.60;99.90
23207;DHT22;11773;52.570;13.052;2022-08-27T01:19:30;21.60;99.90
23207;DHT22;11773;52.570;13.052;2022-08-27T01:24:50;21.70;99.90
23207;DHT22;11773;52.570;13.052;2022-08-27T01:27:25;21.70;99.90
23207;DHT22;11773;52.570;13.052;2022-08-27T01:29:58;21.80;99.90
23207;DHT22;11773;52.570;13.052;2022-08-27T01:32:30;21.80;99.90
23207;DHT22;11773;52.570;13.052;2022-08-27T01:35:04;21.80;99.90
23207;DHT22;11773;52.570;13.052;2022-08-27T01:37:35;21.90;99.90
23207;DHT22;11773;52.570;13.052;2022-08-27T01:40:07;21.70;99.90
23207;DHT22;11773;52.570;13.052;2022-08-27T01:42:42;21.70;99.90
23207;DHT22;11773;52.570;13.052;2022-08-27T01:45:27;21.80;99.90
23207;DHT22;11773;52.570;13.052;2022-08-27T01:47:53;21.70;99.90
23207;DHT22;11773;52.570;13.052;2022-08-27T01:50:26;21.70;99.90
23207;DHT22;11773;52.570;13.052;2022-08-27T01:53:06;21.80;99.90
23207;DHT22;11773;52.570;13.052;2022-08-27T01:55:33;21.90;99.90
23207;DHT22;11773;52.570;13.052;2022-08-27T01:58:03;21.90;99.90
23207;DHT22;11773;52.570;13.052;2022-08-27T02:00:35;21.90;99.90
23207;DHT22;11773;52.570;13.052;2022-08-27T02:03:08;21.70;99.90
23207;DHT22;11773;52.570;13.052;2022-08-27T02:05:40;21.70;99.90
23207;DHT22;11773;52.570;13.052;2022-08-27T02:08:14;21.80;99.90
23207;DHT22;11773;52.570;13.052;2022-08-27T02:10:45;21.80;99.90
23207;DHT22;11773;52.570;13.052;2022-08-27T02:13:16;21.80;99.90
23207;DHT22;11773;52.570;13.052;2022-08-27T02:15:46;21.80;99.90
23207;DHT22;11773;52.570;13.052;2022-08-27T02:18:16;21.80;99.90
23207;DHT22;11773;52.570;13.052;2022-08-27T02:20:47;21.70;99.90
23207;DHT22;11773;52.570;13.052;2022-08-27T02:23:17;21.80;99.90
23207;DHT22;11773;52.570;13.052;2022-08-27T02:25:48;21.90;99.90
23207;DHT22;11773;52.570;13.052;2022-08-27T02:28:17;21.80;99.90
23207;DHT22;11773;52.570;13.052;2022-08-27T02:30:47;21.90;99.90
23207;DHT22;11773;52.570;13.052;2022-08-27T02:33:17;21.80;99.90
23207;DHT22;11773;52.570;13.052;2022-08-27T02:35:46;21.80;99.90
23207;DHT22;11773;52.570;13.052;2022-08-27T02:38:16;21.70;99.90
23207;DHT22;11773;52.570;13.052;2022-08-27T02:40:47;21.70;99.90
23207;DHT22;11773;52.570;13.052;2022-08-27T02:43:18;21.70;99.90
23207;DHT22;11773;52.570;13.052;2022-08-27T02:45:50;21.60;99.90
23207;DHT22;11773;52.570;13.052;2022-08-27T02:48:20;21.60;99.90
23207;DHT22;11773;52.570;13.052;2022-08-27T02:50:51;21.60;99.90
23207;DHT22;11773;52.570;13.052;2022-08-27T02:53:21;21.60;99.90
23207;DHT22;11773;52.570;13.052;2022-08-27T02:55:50;21.70;99.90
23207;DHT22;11773;52.570;13.052;2022-08-27T02:58:20;21.80;99.90
23207;DHT22;11773;52.570;13.052;2022-08-27T03:00:50;21.60;99.90
23207;DHT22;11773;52.570;13.052;2022-08-27T03:03:19;21.60;99.90
23207;DHT22;11773;52.570;13.052;2022-08-27T03:05:49;21.60;99.90
23207;DHT22;11773;52.570;13.052;2022-08-27T03:08:19;21.60;99.90
23207;DHT22;11773;52.570;13.052;2022-08-27T03:10:50;21.70;99.90
23207;DHT22;11773;52.570;13.052;2022-08-27T03:13:20;21.70;99.90
23207;DHT22;11773;52.570;13.052;2022-08-27T03:15:51;21.70;99.90
23207;DHT22;11773;52.570;13.052;2022-08-27T03:18:21;21.60;99.90
23207;DHT22;11773;52.570;13.052;2022-08-27T03:20:53;21.70;99.90
23207;DHT22;11773;52.570;13.052;2022-08-27T03:23:28;21.60;99.90
23207;DHT22;11773;52.570;13.052;2022-08-27T03:26:03;21.70;99.90
23207;DHT22;11773;52.570;13.052;2022-08-27T03:28:35;21.80;99.90
23207;DHT22;11773;52.570;13.052;2022-08-27T03:31:08;21.70;99.90
23207;DHT22;11773;52.570;13.052;2022-08-27T03:33:43;21.80;99.90
23207;DHT22;11773;52.570;13.052;2022-08-27T03:36:12;21.80;99.90
23207;DHT22;11773;52.570;13.052;2022-08-27T03:38:42;21.80;99.90
23207;DHT22;11773;52.570;13.052;2022-08-27T03:41:12;21.90;99.90
23207;DHT22;11773;52.570;13.052;2022-08-27T03:43:44;21.90;99.90
23207;DHT22;11773;52.570;13.052;2022-08-27T03:46:15;21.80;99.90
23207;DHT22;11773;52.570;13.052;2022-08-27T03:48:44;21.80;99.90
23207;DHT22;11773;52.570;13.052;2022-08-27T03:51:16;21.90;99.90
23207;DHT22;11773;52.570;13.052;2022-08-27T03:53:46;21.80;99.90
23207;DHT22;11773;52.570;13.052;2022-08-27T03:56:15;21.80;99.90
23207;DHT22;11773;52.570;13.052;2022-08-27T03:58:45;21.80;99.90
23207;DHT22;11773;52.570;13.052;2022-08-27T04:01:14;21.90;99.90
23207;DHT22;11773;52.570;13.052;2022-08-27T04:03:44;21.90;99.90
23207;DHT22;11773;52.570;13.052;2022-08-27T04:06:14;21.90;99.90
23207;DHT22;11773;52.570;13.052;2022-08-27T04:08:43;21.90;99.90
23207;DHT22;11773;52.570;13.052;2022-08-27T04:11:13;21.90;99.90
23207;DHT22;11773;52.570;13.052;2022-08-27T04:13:42;21.90;99.90
23207;DHT22;11773;52.570;13.052;2022-08-27T04:16:12;21.90;99.90
23207;DHT22;11773;52.570;13.052;2022-08-27T04:18:42;21.90;99.90
23207;DHT22;11773;52.570;13.052;2022-08-27T04:21:13;21.90;99.90
23207;DHT22;11773;52.570;13.052;2022-08-27T04:23:43;21.80;99.90
23207;DHT22;11773;52.570;13.052;2022-08-27T04:26:13;21.90;99.90
23207;DHT22;11773;52.570;13.052;2022-08-27T04:28:43;21.90;99.90
23207;DHT22;11773;52.570;13.052;2022-08-27T04:31:15;21.90;99.90
23207;DHT22;11773;52.570;13.052;2022-08-27T04:33:46;21.80;99.90
23207;DHT22;11773;52.570;13.052;2022-08-27T04:36:18;21.80;99.90
23207;DHT22;11773;52.570;13.052;2022-08-27T04:38:48;21.70;99.90
23207;DHT22;11773;52.570;13.052;2022-08-27T04:41:18;21.80;99.90
23207;DHT22;11773;52.570;13.052;2022-08-27T04:43:56;21.70;99.90
23207;DHT22;11773;52.570;13.052;2022-08-27T04:46:28;21.80;99.90
23207;DHT22;11773;52.570;13.052;2022-08-27T04:49:03;21.80;99.90
23207;DHT22;11773;52.570;13.052;2022-08-27T04:51:37;21.70;99.90
23207;DHT22;11773;52.570;13.052;2022-08-27T04:54:09;21.70;99.90
23207;DHT22;11773;52.570;13.052;2022-08-27T04:56:40;21.70;99.90
23207;DHT22;11773;52.570;13.052;2022-08-27T04:59:10;21.70;99.90
23207;DHT22;11773;52.570;13.052;2022-08-27T05:01:40;21.70;99.90
23207;DHT22;11773;52.570;13.052;2022-08-27T05:04:13;21.70;99.90
23207;DHT22;11773;52.570;13.052;2022-08-27T05:06:45;21.70;99.90
23207;DHT22;11773;52.570;13.052;2022-08-27T05:09:18;21.80;99.90
23207;DHT22;11773;52.570;13.052;2022-08-27T05:11:50;21.80;99.90
23207;DHT22;11773;52.570;13.052;2022-08-27T05:14:20;21.90;99.90
23207;DHT22;11773;52.570;13.052;2022-08-27T05:16:51;21.90;99.90
23207;DHT22;11773;52.570;13.052;2022-08-27T05:19:21;21.90;99.90
23207;DHT22;11773;52.570;13.052;2022-08-27T05:21:52;21.90;99.90
23207;DHT22;11773;52.570;13.052;2022-08-27T05:24:21;21.90;99.90
23207;DHT22;11773;52.570;13.052;2022-08-27T05:26:51;22.00;99.90
23207;DHT22;11773;52.570;13.052;2022-08-27T05:29:21;22.10;99.90
23207;DHT22;11773;52.570;13.052;2022-08-27T05:31:50;22.00;99.90
23207;DHT22;11773;52.570;13.052;2022-08-27T05:34:21;22.00;99.90
23207;DHT22;11773;52.570;13.052;2022-08-27T05:36:53;22.10;99.90
23207;DHT22;11773;52.570;13.052;2022-08-27T05:39:22;22.10;99.90
23207;DHT22;11773;52.570;13.052;2022-08-27T05:42:00;22.10;99.90
23207;DHT22;11773;52.570;13.052;2022-08-27T05:44:25;22.10;99.90
23207;DHT22;11773;52.570;13.052;2022-08-27T05:46:56;22.20;99.90
23207;DHT22;11773;52.570;13.052;2022-08-27T05:49:26;22.10;99.90
23207;DHT22;11773;52.570;13.052;2022-08-27T05:51:55;22.10;99.90
23207;DHT22;11773;52.570;13.052;2022-08-27T05:54:25;22.20;99.90
23207;DHT22;11773;52.570;13.052;2022-08-27T05:56:55;22.10;99.90
23207;DHT22;11773;52.570;13.052;2022-08-27T05:59:24;22.20;99.90
23207;DHT22;11773;52.570;13.052;2022-08-27T06:02:11;22.30;99.90
23207;DHT22;11773;52.570;13.052;2022-08-27T06:04:41;22.20;99.90
23207;DHT22;11773;52.570;13.052;2022-08-27T06:07:10;22.00;99.90
23207;DHT22;11773;52.570;13.052;2022-08-27T06:09:40;22.10;99.90
23207;DHT22;11773;52.570;13.052;2022-08-27T06:12:10;22.20;99.90
23207;DHT22;11773;52.570;13.052;2022-08-27T06:14:39;22.30;99.90
23207;DHT22;11773;52.570;13.052;2022-08-27T06:17:09;22.30;99.90
23207;DHT22;11773;52.570;13.052;2022-08-27T06:19:39;22.20;99.90
23207;DHT22;11773;52.570;13.052;2022-08-27T06:22:09;22.30;99.90
23207;DHT22;11773;52.570;13.052;2022-08-27T06:24:40;22.10;99.90
23207;DHT22;11773;52.570;13.052;2022-08-27T06:27:12;22.00;99.90
23207;DHT22;11773;52.570;13.052;2022-08-27T06:29:44;22.10;99.90
23207;DHT22;11773;52.570;13.052;2022-08-27T06:32:14;22.20;99.90
23207;DHT22;11773;52.570;13.052;2022-08-27T06:34:43;22.10;99.90
23207;DHT22;11773;52.570;13.052;2022-08-27T06:37:13;22.10;99.90
23207;DHT22;11773;52.570;13.052;2022-08-27T06:39:43;22.10;99.90
23207;DHT22;11773;52.570;13.052;2022-08-27T06:42:12;22.20;99.90
23207;DHT22;11773;52.570;13.052;2022-08-27T06:44:42;22.20;99.90
23207;DHT22;11773;52.570;13.052;2022-08-27T06:47:12;22.10;99.90
23207;DHT22;11773;52.570;13.052;2022-08-27T06:49:41;22.20;99.90
23207;DHT22;11773;52.570;13.052;2022-08-27T06:52:14;22.40;99.90
23207;DHT22;11773;52.570;13.052;2022-08-27T06:54:43;22.40;99.90
23207;DHT22;11773;52.570;13.052;2022-08-27T06:57:13;22.30;99.90
23207;DHT22;11773;52.570;13.052;2022-08-27T07:02:19;22.50;99.90
23207;DHT22;11773;52.570;13.052;2022-08-27T07:04:51;22.20;99.90
23207;DHT22;11773;52.570;13.052;2022-08-27T07:07:23;22.20;99.90
23207;DHT22;11773;52.570;13.052;2022-08-27T07:09:54;22.20;99.90
23207;DHT22;11773;52.570;13.052;2022-08-27T07:12:24;22.20;99.90
23207;DHT22;11773;52.570;13.052;2022-08-27T07:14:55;22.20;99.90
23207;DHT22;11773;52.570;13.052;2022-08-27T07:17:26;22.30;99.90
23207;DHT22;11773;52.570;13.052;2022-08-27T07:19:55;22.40;99.90
23207;DHT22;11773;52.570;13.052;2022-08-27T07:22:25;22.40;99.90
23207;DHT22;11773;52.570;13.052;2022-08-27T07:24:56;22.40;99.90
23207;DHT22;11773;52.570;13.052;2022-08-27T07:27:26;22.50;99.90
23207;DHT22;11773;52.570;13.052;2022-08-27T07:29:56;22.60;99.90
23207;DHT22;11773;52.570;13.052;2022-08-27T07:32:28;22.50;99.90
23207;DHT22;11773;52.570;13.052;2022-08-27T07:34:58;22.60;99.90
23207;DHT22;11773;52.570;13.052;2022-08-27T07:37:29;22.50;99.90
23207;DHT22;11773;52.570;13.052;2022-08-27T07:40:08;22.50;99.90
23207;DHT22;11773;52.570;13.052;2022-08-27T07:42:41;22.40;99.90
23207;DHT22;11773;52.570;13.052;2022-08-27T07:45:30;22.50;99.90
23207;DHT22;11773;52.570;13.052;2022-08-27T07:47:59;22.50;99.90
23207;DHT22;11773;52.570;13.052;2022-08-27T07:50:29;22.50;99.90
23207;DHT22;11773;52.570;13.052;2022-08-27T07:53:00;22.60;99.90
23207;DHT22;11773;52.570;13.052;2022-08-27T07:55:29;22.60;99.90
23207;DHT22;11773;52.570;13.052;2022-08-27T07:57:59;22.70;99.90
23207;DHT22;11773;52.570;13.052;2022-08-27T08:00:30;22.60;99.90
23207;DHT22;11773;52.570;13.052;2022-08-27T08:03:01;22.60;99.90
23207;DHT22;11773;52.570;13.052;2022-08-27T08:05:31;22.70;99.90
23207;DHT22;11773;52.570;13.052;2022-08-27T08:08:02;22.80;99.90
23207;DHT22;11773;52.570;13.052;2022-08-27T08:10:31;22.90;99.90
23207;DHT22;11773;52.570;13.052;2022-08-27T08:13:04;22.90;99.90
23207;DHT22;11773;52.570;13.052;2022-08-27T08:15:34;22.90;99.90
23207;DHT22;11773;52.570;13.052;2022-08-27T08:18:04;22.80;99.90
23207;DHT22;11773;52.570;13.052;2022-08-27T08:20:34;22.90;99.90
23207;DHT22;11773;52.570;13.052;2022-08-27T08:23:05;22.90;99.90
23207;DHT22;11773;52.570;13.052;2022-08-27T08:25:37;23.00;99.90
23207;DHT22;11773;52.570;13.052;2022-08-27T08:28:07;23.10;99.90
23207;DHT22;11773;52.570;13.052;2022-08-27T08:30:40;23.10;99.90
23207;DHT22;11773;52.570;13.052;2022-08-27T08:33:11;23.00;99.90
23207;DHT22;11773;52.570;13.052;2022-08-27T08:35:41;23.00;99.90
23207;DHT22;11773;52.570;13.052;2022-08-27T08:38:10;23.00;99.90
23207;DHT22;11773;52.570;13.052;2022-08-27T08:40:43;23.10;99.90
23207;DHT22;11773;52.570;13.052;2022-08-27T08:43:32;23.10;99.90
23207;DHT22;11773;52.570;13.052;2022-08-27T08:46:02;23.00;99.90
23207;DHT22;11773;52.570;13.052;2022-08-27T08:48:47;23.10;99.90
23207;DHT22;11773;52.570;13.052;2022-08-27T08:51:27;23.10;99.90
23207;DHT22;11773;52.570;13.052;2022-08-27T08:54:05;23.20;99.90
23207;DHT22;11773;52.570;13.052;2022-08-27T08:56:54;23.00;99.90
23207;DHT22;11773;52.570;13.052;2022-08-27T08:59:36;23.10;99.90
23207;DHT22;11773;52.570;13.052;2022-08-27T09:02:11;22.90;99.90
23207;DHT22;11773;52.570;13.052;2022-08-27T09:04:43;22.90;99.90
23207;DHT22;11773;52.570;13.052;2022-08-27T09:07:34;22.90;99.90
23207;DHT22;11773;52.570;13.052;2022-08-27T09:10:27;23.00;99.90
23207;DHT22;11773;52.570;13.052;2022-08-27T09:13:18;23.10;99.90
23207;DHT22;11773;52.570;13.052;2022-08-27T09:15:44;23.10;99.90
23207;DHT22;11773;52.570;13.052;2022-08-27T09:18:14;23.10;99.90
23207;DHT22;11773;52.570;13.052;2022-08-27T09:20:49;23.20;99.90
23207;DHT22;11773;52.570;13.052;2022-08-27T09:23:25;23.10;99.90
23207;DHT22;11773;52.570;13.052;2022-08-27T09:25:57;23.10;99.90
23207;DHT22;11773;52.570;13.052;2022-08-27T09:28:28;23.10;99.90
23207;DHT22;11773;52.570;13.052;2022-08-27T09:31:18;23.10;99.90
23207;DHT22;11773;52.570;13.052;2022-08-27T09:33:48;23.30;99.90
23207;DHT22;11773;52.570;13.052;2022-08-27T09:36:20;23.30;99.90
23207;DHT22;11773;52.570;13.052;2022-08-27T09:38:54;23.40;99.90
23207;DHT22;11773;52.570;13.052;2022-08-27T09:41:28;23.50;99.90
23207;DHT22;11773;52.570;13.052;2022-08-27T09:44:06;23.50;99.90
23207;DHT22;11773;52.570;13.052;2022-08-27T09:46:37;23.40;99.90
23207;DHT22;11773;52.570;13.052;2022-08-27T09:49:12;23.50;99.90
23207;DHT22;11773;52.570;13.052;2022-08-27T09:51:44;23.40;99.90
23207;DHT22;11773;52.570;13.052;2022-08-27T09:54:36;23.40;99.90
23207;DHT22;11773;52.570;13.052;2022-08-27T09:57:09;23.30;99.90
23207;DHT22;11773;52.570;13.052;2022-08-27T09:59:49;23.40;99.90
23207;DHT22;11773;52.570;13.052;2022-08-27T10:02:23;23.40;99.90
23207;DHT22;11773;52.570;13.052;2022-08-27T10:04:57;23.40;99.90
23207;DHT22;11773;52.570;13.052;2022-08-27T10:07:50;23.50;99.90
23207;DHT22;11773;52.570;13.052;2022-08-27T10:10:45;23.20;99.90
23207;DHT22;11773;52.570;13.052;2022-08-27T10:16:43;23.40;99.90
23207;DHT22;11773;52.570;13.052;2022-08-27T10:19:44;23.50;99.90
23207;DHT22;11773;52.570;13.052;2022-08-27T10:25:08;23.70;99.90
23207;DHT22;11773;52.570;13.052;2022-08-27T10:28:02;23.70;99.90
23207;DHT22;11773;52.570;13.052;2022-08-27T10:31:03;23.60;99.90
23207;DHT22;11773;52.570;13.052;2022-08-27T10:33:38;23.80;99.90
23207;DHT22;11773;52.570;13.052;2022-08-27T10:36:31;23.90;99.90
23207;DHT22;11773;52.570;13.052;2022-08-27T10:39:37;24.00;99.90
23207;DHT22;11773;52.570;13.052;2022-08-27T10:42:29;23.90;99.90
23207;DHT22;11773;52.570;13.052;2022-08-27T10:45:23;24.10;99.90
23207;DHT22;11773;52.570;13.052;2022-08-27T10:48:23;24.10;99.90
23207;DHT22;11773;52.570;13.052;2022-08-27T11:00:15;24.10;99.90
23207;DHT22;11773;52.570;13.052;2022-08-27T11:03:08;24.20;99.90
23207;DHT22;11773;52.570;13.052;2022-08-27T11:05:45;24.20;99.90
23207;DHT22;11773;52.570;13.052;2022-08-27T11:08:23;24.00;99.90
23207;DHT22;11773;52.570;13.052;2022-08-27T11:11:19;24.00;99.90
23207;DHT22;11773;52.570;13.052;2022-08-27T11:13:51;24.10;99.90
23207;DHT22;11773;52.570;13.052;2022-08-27T11:16:32;24.10;99.90
23207;DHT22;11773;52.570;13.052;2022-08-27T11:19:07;24.30;99.90
23207;DHT22;11773;52.570;13.052;2022-08-27T11:21:58;24.30;99.90
23207;DHT22;11773;52.570;13.052;2022-08-27T11:24:27;24.50;99.90
23207;DHT22;11773;52.570;13.052;2022-08-27T11:27:04;24.40;99.90
23207;DHT22;11773;52.570;13.052;2022-08-27T11:29:45;24.60;99.90
23207;DHT22;11773;52.570;13.052;2022-08-27T11:35:19;24.60;99.90
23207;DHT22;11773;52.570;13.052;2022-08-27T11:38:31;24.60;99.90
23207;DHT22;11773;52.570;13.052;2022-08-27T11:43:47;24.60;99.90
23207;DHT22;11773;52.570;13.052;2022-08-27T11:46:23;24.60;99.90
23207;DHT22;11773;52.570;13.052;2022-08-27T11:48:57;24.60;99.90
23207;DHT22;11773;52.570;13.052;2022-08-27T11:51:32;24.60;99.90
23207;DHT22;11773;52.570;13.052;2022-08-27T11:54:20;24.80;99.90
23207;DHT22;11773;52.570;13.052;2022-08-27T11:56:58;24.80;99.90
23207;DHT22;11773;52.570;13.052;2022-08-27T11:59:30;24.80;99.90
23207;DHT22;11773;52.570;13.052;2022-08-27T12:02:23;24.70;99.90
23207;DHT22;11773;52.570;13.052;2022-08-27T12:04:53;24.70;99.90
23207;DHT22;11773;52.570;13.052;2022-08-27T12:07:43;24.70;99.90
23207;DHT22;11773;52.570;13.052;2022-08-27T12:10:19;24.80;99.90
23207;DHT22;11773;52.570;13.052;2022-08-27T12:13:07;24.90;99.90
23207;DHT22;11773;52.570;13.052;2022-08-27T12:15:53;24.70;99.90
23207;DHT22;11773;52.570;13.052;2022-08-27T12:18:55;24.80;99.90
23207;DHT22;11773;52.570;13.052;2022-08-27T12:24:47;25.20;99.90
23207;DHT22;11773;52.570;13.052;2022-08-27T12:27:27;25.20;99.90
23207;DHT22;11773;52.570;13.052;2022-08-27T12:30:05;25.20;99.90
23207;DHT22;11773;52.570;13.052;2022-08-27T12:32:39;25.00;99.90
23207;DHT22;11773;52.570;13.052;2022-08-27T12:35:22;25.10;99.90
23207;DHT22;11773;52.570;13.052;2022-08-27T12:38:19;25.30;99.90
23207;DHT22;11773;52.570;13.052;2022-08-27T12:40:55;25.30;99.90
23207;DHT22;11773;52.570;13.052;2022-08-27T12:43:29;25.30;99.90
23207;DHT22;11773;52.570;13.052;2022-08-27T12:46:12;25.20;99.90
23207;DHT22;11773;52.570;13.052;2022-08-27T12:48:50;25.20;99.90
23207;DHT22;11773;52.570;13.052;2022-08-27T12:51:24;25.30;99.90
23207;DHT22;11773;52.570;13.052;2022-08-27T12:57:29;25.40;99.90
23207;DHT22;11773;52.570;13.052;2022-08-27T13:00:07;25.40;99.90
23207;DHT22;11773;52.570;13.052;2022-08-27T13:02:55;25.50;99.90
23207;DHT22;11773;52.570;13.052;2022-08-27T13:05:42;25.60;99.90
23207;DHT22;11773;52.570;13.052;2022-08-27T13:08:22;25.60;99.90
23207;DHT22;11773;52.570;13.052;2022-08-27T13:11:20;25.60;99.90
23207;DHT22;11773;52.570;13.052;2022-08-27T13:14:06;25.60;99.90
23207;DHT22;11773;52.570;13.052;2022-08-27T13:16:45;25.50;99.90
23207;DHT22;11773;52.570;13.052;2022-08-27T13:19:27;25.60;99.90
23207;DHT22;11773;52.570;13.052;2022-08-27T13:22:20;25.70;99.90
23207;DHT22;11773;52.570;13.052;2022-08-27T13:24:59;25.60;99.90
23207;DHT22;11773;52.570;13.052;2022-08-27T13:27:32;25.80;99.90
23207;DHT22;11773;52.570;13.052;2022-08-27T13:30:09;25.80;99.90
23207;DHT22;11773;52.570;13.052;2022-08-27T13:32:41;25.80;99.90
23207;DHT22;11773;52.570;13.052;2022-08-27T13:35:12;25.70;99.90
23207;DHT22;11773;52.570;13.052;2022-08-27T13:37:50;25.60;99.90
23207;DHT22;11773;52.570;13.052;2022-08-27T13:40:28;25.60;99.90
23207;DHT22;11773;52.570;13.052;2022-08-27T13:43:08;25.50;99.90
23207;DHT22;11773;52.570;13.052;2022-08-27T13:45:40;25.50;99.90
23207;DHT22;11773;52.570;13.052;2022-08-27T13:48:13;25.60;99.90
23207;DHT22;11773;52.570;13.052;2022-08-27T13:50:52;25.80;99.90
23207;DHT22;11773;52.570;13.052;2022-08-27T13:53:26;25.70;99.90
23207;DHT22;11773;52.570;13.052;2022-08-27T13:56:33;25.60;99.90
23207;DHT22;11773;52.570;13.052;2022-08-27T13:59:23;25.70;99.90
23207;DHT22;11773;52.570;13.052;2022-08-27T14:05:45;25.60;99.90
23207;DHT22;11773;52.570;13.052;2022-08-27T14:07:36;25.40;99.90
23207;DHT22;11773;52.570;13.052;2022-08-27T14:10:35;25.20;99.90
23207;DHT22;11773;52.570;13.052;2022-08-27T14:13:08;25.30;99.90
23207;DHT22;11773;52.570;13.052;2022-08-27T14:15:44;25.20;99.90
23207;DHT22;11773;52.570;13.052;2022-08-27T14:18:27;25.30;99.90
23207;DHT22;11773;52.570;13.052;2022-08-27T14:21:02;25.40;99.90
23207;DHT22;11773;52.570;13.052;2022-08-27T14:23:32;25.30;99.90
23207;DHT22;11773;52.570;13.052;2022-08-27T14:26:01;25.20;99.90
23207;DHT22;11773;52.570;13.052;2022-08-27T14:28:31;25.00;99.90
23207;DHT22;11773;52.570;13.052;2022-08-27T14:31:01;25.00;99.90
23207;DHT22;11773;52.570;13.052;2022-08-27T14:33:30;24.90;99.90
23207;DHT22;11773;52.570;13.052;2022-08-27T14:36:00;24.70;99.90
23207;DHT22;11773;52.570;13.052;2022-08-27T14:38:31;24.90;99.90
23207;DHT22;11773;52.570;13.052;2022-08-27T14:41:03;24.90;99.90
23207;DHT22;11773;52.570;13.052;2022-08-27T14:43:34;24.90;99.90
23207;DHT22;11773;52.570;13.052;2022-08-27T14:46:07;24.90;99.90
23207;DHT22;11773;52.570;13.052;2022-08-27T14:48:39;24.90;99.90
23207;DHT22;11773;52.570;13.052;2022-08-27T14:51:15;24.80;99.90
23207;DHT22;11773;52.570;13.052;2022-08-27T14:53:46;24.90;99.90
23207;DHT22;11773;52.570;13.052;2022-08-27T14:56:19;24.90;99.90
23207;DHT22;11773;52.570;13.052;2022-08-27T14:58:50;24.90;99.90
23207;DHT22;11773;52.570;13.052;2022-08-27T15:01:22;24.80;99.90
23207;DHT22;11773;52.570;13.052;2022-08-27T15:03:54;24.80;99.90
23207;DHT22;11773;52.570;13.052;2022-08-27T15:06:24;25.10;99.90
23207;DHT22;11773;52.570;13.052;2022-08-27T15:08:54;25.10;99.90
23207;DHT22;11773;52.570;13.052;2022-08-27T15:11:27;25.00;99.90
23207;DHT22;11773;52.570;13.052;2022-08-27T15:13:59;24.90;99.90
23207;DHT22;11773;52.570;13.052;2022-08-27T15:16:37;24.70;99.90
23207;DHT22;11773;52.570;13.052;2022-08-27T15:19:10;24.40;99.90
23207;DHT22;11773;52.570;13.052;2022-08-27T15:21:44;24.40;99.90
23207;DHT22;11773;52.570;13.052;2022-08-27T15:24:24;24.30;99.90
23207;DHT22;11773;52.570;13.052;2022-08-27T15:26:56;24.10;99.90
23207;DHT22;11773;52.570;13.052;2022-08-27T15:29:26;24.00;99.90
23207;DHT22;11773;52.570;13.052;2022-08-27T15:31:56;24.00;99.90
23207;DHT22;11773;52.570;13.052;2022-08-27T15:34:25;23.80;99.90
23207;DHT22;11773;52.570;13.052;2022-08-27T15:36:55;23.90;99.90
23207;DHT22;11773;52.570;13.052;2022-08-27T15:39:26;23.90;99.90
23207;DHT22;11773;52.570;13.052;2022-08-27T15:41:57;23.70;99.90
23207;DHT22;11773;52.570;13.052;2022-08-27T15:44:29;23.70;99.90
23207;DHT22;11773;52.570;13.052;2022-08-27T15:46:58;23.70;99.90
23207;DHT22;11773;52.570;13.052;2022-08-27T15:49:28;23.40;99.90
23207;DHT22;11773;52.570;13.052;2022-08-27T15:51:57;23.40;99.90
23207;DHT22;11773;52.570;13.052;2022-08-27T15:54:27;23.60;99.90
23207;DHT22;11773;52.570;13.052;2022-08-27T15:56:57;23.70;99.90
23207;DHT22;11773;52.570;13.052;2022-08-27T15:59:27;23.80;99.90
23207;DHT22;11773;52.570;13.052;2022-08-27T16:01:56;23.40;99.90
23207;DHT22;11773;52.570;13.052;2022-08-27T16:04:27;23.40;99.90
23207;DHT22;11773;52.570;13.052;2022-08-27T16:06:56;23.60;99.90
23207;DHT22;11773;52.570;13.052;2022-08-27T16:09:26;23.60;99.90
23207;DHT22;11773;52.570;13.052;2022-08-27T16:11:55;23.30;99.90
23207;DHT22;11773;52.570;13.052;2022-08-27T16:14:25;23.20;99.90
23207;DHT22;11773;52.570;13.052;2022-08-27T16:16:55;23.30;99.90
23207;DHT22;11773;52.570;13.052;2022-08-27T16:19:25;23.20;99.90
23207;DHT22;11773;52.570;13.052;2022-08-27T16:21:55;23.20;99.90
23207;DHT22;11773;52.570;13.052;2022-08-27T16:24:24;23.20;99.90
23207;DHT22;11773;52.570;13.052;2022-08-27T16:26:54;23.20;99.90
23207;DHT22;11773;52.570;13.052;2022-08-27T16:29:23;23.10;99.90
23207;DHT22;11773;52.570;13.052;2022-08-27T16:31:53;23.00;99.90
23207;DHT22;11773;52.570;13.052;2022-08-27T16:34:26;23.10;99.90